sensor_id;sensor_type;location;lat;lon;timestamp;P1;durP1;ratioP1;P2;durP2;ratioP2
63394;SDS011;49531;-34.520;150.798;2022-09-13T00:02:18;4.05;;;1.95;;
63394;SDS011;49531;-34.520;150.798;2022-09-13T00:04:45;4.57;;;2.05;;
63394;SDS011;49531;-34.520;150.798;2022-09-13T00:07:12;5.18;;;2.33;;
63394;SDS011;49531;-34.520;150.798;2022-09-13T00:09:39;4.82;;;2.10;;
63394;SDS011;49531;-34.520;150.798;2022-09-13T00:12:06;5.78;;;1.95;;
63394;SDS011;49531;-34.520;150.798;2022-09-13T00:14:33;3.92;;;2.00;;
63394;SDS011;49531;-34.520;150.798;2022-09-13T00:17:00;4.75;;;2.05;;
63394;SDS011;49531;-34.520;150.798;2022-09-13T00:19:27;3.58;;;1.80;;
63394;SDS011;49531;-34.520;150.798;2022-09-13T00:21:54;4.85;;;1.60;;
63394;SDS011;49531;-34.520;150.798;2022-09-13T00:24:21;5.32;;;1.95;;
63394;SDS011;49531;-34.520;150.798;2022-09-13T00:26:49;3.30;;;1.55;;
63394;SDS011;49531;-34.520;150.798;2022-09-13T00:29:16;3.78;;;1.65;;
63394;SDS011;49531;-34.520;150.798;2022-09-13T00:31:43;3.33;;;1.63;;
63394;SDS011;49531;-34.520;150.798;2022-09-13T00:34:10;3.85;;;1.60;;
63394;SDS011;49531;-34.520;150.798;2022-09-13T00:36:37;3.35;;;1.40;;
63394;SDS011;49531;-34.520;150.798;2022-09-13T00:39:04;3.30;;;1.50;;
63394;SDS011;49531;-34.520;150.798;2022-09-13T00:41:31;5.75;;;1.50;;
63394;SDS011;49531;-34.520;150.798;2022-09-13T00:43:59;3.13;;;1.40;;
63394;SDS011;49531;-34.520;150.798;2022-09-13T00:46:35;9.02;;;1.95;;
63394;SDS011;49531;-34.520;150.798;2022-09-13T00:49:10;3.10;;;1.48;;
63394;SDS011;49531;-34.520;150.798;2022-09-13T00:51:43;3.60;;;1.50;;
63394;SDS011;49531;-34.520;150.798;2022-09-13T00:54:15;5.03;;;1.60;;
63394;SDS011;49531;-34.520;150.798;2022-09-13T00:56:49;3.20;;;1.60;;
63394;SDS011;49531;-34.520;150.798;2022-09-13T00:59:21;3.58;;;1.42;;
63394;SDS011;49531;-34.520;150.798;2022-09-13T01:01:54;3.67;;;1.55;;
63394;SDS011;49531;-34.520;150.798;2022-09-13T01:04:24;4.43;;;1.50;;
63394;SDS011;49531;-34.520;150.798;2022-09-13T01:06:55;3.63;;;1.50;;
63394;SDS011;49531;-34.520;150.798;2022-09-13T01:09:28;2.97;;;1.50;;
63394;SDS011;49531;-34.520;150.798;2022-09-13T01:12:00;5.93;;;1.58;;
63394;SDS011;49531;-34.520;150.798;2022-09-13T01:14:32;3.05;;;1.50;;
63394;SDS011;49531;-34.520;150.798;2022-09-13T01:17:01;5.47;;;1.40;;
63394;SDS011;49531;-34.520;150.798;2022-09-13T01:19:29;4.18;;;1.42;;
63394;SDS011;49531;-34.520;150.798;2022-09-13T01:24:57;3.03;;;1.40;;
63394;SDS011;49531;-34.520;150.798;2022-09-13T01:27:51;5.82;;;1.40;;
63394;SDS011;49531;-34.520;150.798;2022-09-13T01:30:34;3.13;;;1.50;;
63394;SDS011;49531;-34.520;150.798;2022-09-13T01:33:12;7.43;;;1.90;;
63394;SDS011;49531;-34.520;150.798;2022-09-13T01:36:05;2.03;;;1.40;;
63394;SDS011;49531;-34.520;150.798;2022-09-13T01:41:46;4.88;;;1.60;;
63394;SDS011;49531;-34.520;150.798;2022-09-13T01:44:38;3.38;;;1.50;;
63394;SDS011;49531;-34.520;150.798;2022-09-13T01:47:31;3.80;;;1.25;;
63394;SDS011;49531;-34.520;150.798;2022-09-13T01:50:27;4.15;;;1.27;;
63394;SDS011;49531;-34.520;150.798;2022-09-13T01:53:30;4.25;;;1.30;;
63394;SDS011;49531;-34.520;150.798;2022-09-13T01:56:02;2.08;;;1.20;;
63394;SDS011;49531;-34.520;150.798;2022-09-13T01:58:40;4.65;;;1.50;;
63394;SDS011;49531;-34.520;150.798;2022-09-13T02:04:06;3.45;;;1.48;;
63394;SDS011;49531;-34.520;150.798;2022-09-13T02:06:51;3.35;;;1.33;;
63394;SDS011;49531;-34.520;150.798;2022-09-13T02:09:26;3.42;;;1.20;;
63394;SDS011;49531;-34.520;150.798;2022-09-13T02:11:59;4.43;;;1.50;;
63394;SDS011;49531;-34.520;150.798;2022-09-13T02:14:34;1.75;;;1.15;;
63394;SDS011;49531;-34.520;150.798;2022-09-13T02:17:06;3.10;;;1.30;;
63394;SDS011;49531;-34.520;150.798;2022-09-13T02:19:40;2.90;;;1.30;;
63394;SDS011;49531;-34.520;150.798;2022-09-13T02:22:12;4.88;;;1.58;;
63394;SDS011;49531;-34.520;150.798;2022-09-13T02:24:45;3.47;;;1.40;;
63394;SDS011;49531;-34.520;150.798;2022-09-13T02:27:18;1.77;;;1.20;;
63394;SDS011;49531;-34.520;150.798;2022-09-13T02:29:51;3.15;;;1.50;;
63394;SDS011;49531;-34.520;150.798;2022-09-13T02:32:25;3.20;;;1.40;;
63394;SDS011;49531;-34.520;150.798;2022-09-13T02:35:01;3.22;;;1.20;;
63394;SDS011;49531;-34.520;150.798;2022-09-13T02:37:37;3.85;;;1.30;;
63394;SDS011;49531;-34.520;150.798;2022-09-13T02:40:07;2.50;;;1.17;;
63394;SDS011;49531;-34.520;150.798;2022-09-13T02:42:41;4.18;;;1.55;;
63394;SDS011;49531;-34.520;150.798;2022-09-13T02:45:12;2.38;;;1.10;;
63394;SDS011;49531;-34.520;150.798;2022-09-13T02:47:48;2.42;;;1.40;;
63394;SDS011;49531;-34.520;150.798;2022-09-13T02:50:28;7.20;;;1.35;;
63394;SDS011;49531;-34.520;150.798;2022-09-13T02:53:28;7.63;;;1.55;;
63394;SDS011;49531;-34.520;150.798;2022-09-13T02:56:18;4.15;;;1.60;;
63394;SDS011;49531;-34.520;150.798;2022-09-13T02:59:01;5.07;;;1.48;;
63394;SDS011;49531;-34.520;150.798;2022-09-13T03:01:36;8.23;;;1.48;;
63394;SDS011;49531;-34.520;150.798;2022-09-13T03:04:04;8.57;;;1.60;;
63394;SDS011;49531;-34.520;150.798;2022-09-13T03:06:32;6.43;;;1.40;;
63394;SDS011;49531;-34.520;150.798;2022-09-13T03:08:59;4.45;;;1.40;;
63394;SDS011;49531;-34.520;150.798;2022-09-13T03:14:36;5.27;;;1.20;;
63394;SDS011;49531;-34.520;150.798;2022-09-13T03:17:36;4.07;;;1.10;;
63394;SDS011;49531;-34.520;150.798;2022-09-13T03:20:13;6.55;;;1.60;;
63394;SDS011;49531;-34.520;150.798;2022-09-13T03:22:54;4.18;;;1.40;;
63394;SDS011;49531;-34.520;150.798;2022-09-13T03:25:47;3.25;;;1.35;;
63394;SDS011;49531;-34.520;150.798;2022-09-13T03:31:27;5.50;;;1.50;;
63394;SDS011;49531;-34.520;150.798;2022-09-13T03:36:56;3.78;;;1.35;;
63394;SDS011;49531;-34.520;150.798;2022-09-13T03:39:34;2.63;;;1.10;;
63394;SDS011;49531;-34.520;150.798;2022-09-13T03:42:19;5.50;;;1.30;;
63394;SDS011;49531;-34.520;150.798;2022-09-13T03:44:54;2.58;;;1.15;;
63394;SDS011;49531;-34.520;150.798;2022-09-13T03:47:24;9.90;;;1.30;;
63394;SDS011;49531;-34.520;150.798;2022-09-13T03:49:55;3.55;;;1.27;;
63394;SDS011;49531;-34.520;150.798;2022-09-13T03:52:23;3.72;;;1.20;;
63394;SDS011;49531;-34.520;150.798;2022-09-13T03:54:51;4.43;;;1.30;;
63394;SDS011;49531;-34.520;150.798;2022-09-13T03:57:19;7.47;;;1.30;;
63394;SDS011;49531;-34.520;150.798;2022-09-13T03:59:49;4.25;;;1.30;;
63394;SDS011;49531;-34.520;150.798;2022-09-13T04:02:18;3.53;;;1.30;;
63394;SDS011;49531;-34.520;150.798;2022-09-13T04:04:46;5.47;;;1.38;;
63394;SDS011;49531;-34.520;150.798;2022-09-13T04:07:15;3.72;;;1.10;;
63394;SDS011;49531;-34.520;150.798;2022-09-13T04:09:43;5.90;;;1.55;;
63394;SDS011;49531;-34.520;150.798;2022-09-13T04:12:11;2.08;;;1.00;;
63394;SDS011;49531;-34.520;150.798;2022-09-13T04:14:39;2.67;;;1.17;;
63394;SDS011;49531;-34.520;150.798;2022-09-13T04:17:08;4.57;;;1.40;;
63394;SDS011;49531;-34.520;150.798;2022-09-13T04:19:36;3.17;;;1.10;;
63394;SDS011;49531;-34.520;150.798;2022-09-13T04:22:04;4.40;;;1.23;;
63394;SDS011;49531;-34.520;150.798;2022-09-13T04:24:31;3.28;;;1.25;;
63394;SDS011;49531;-34.520;150.798;2022-09-13T04:26:58;6.65;;;1.33;;
63394;SDS011;49531;-34.520;150.798;2022-09-13T04:29:27;2.55;;;1.08;;
63394;SDS011;49531;-34.520;150.798;2022-09-13T04:31:56;6.72;;;1.50;;
63394;SDS011;49531;-34.520;150.798;2022-09-13T04:34:23;2.20;;;0.98;;
63394;SDS011;49531;-34.520;150.798;2022-09-13T04:36:51;5.00;;;1.27;;
63394;SDS011;49531;-34.520;150.798;2022-09-13T04:39:19;4.35;;;1.58;;
63394;SDS011;49531;-34.520;150.798;2022-09-13T04:41:46;4.35;;;1.10;;
63394;SDS011;49531;-34.520;150.798;2022-09-13T04:44:16;3.80;;;1.30;;
63394;SDS011;49531;-34.520;150.798;2022-09-13T04:46:45;3.65;;;1.00;;
63394;SDS011;49531;-34.520;150.798;2022-09-13T04:49:14;5.55;;;1.10;;
63394;SDS011;49531;-34.520;150.798;2022-09-13T04:51:42;3.83;;;1.27;;
63394;SDS011;49531;-34.520;150.798;2022-09-13T04:54:10;3.15;;;1.05;;
63394;SDS011;49531;-34.520;150.798;2022-09-13T04:56:37;5.85;;;1.17;;
63394;SDS011;49531;-34.520;150.798;2022-09-13T04:59:05;3.13;;;1.10;;
63394;SDS011;49531;-34.520;150.798;2022-09-13T05:01:32;3.10;;;1.10;;
63394;SDS011;49531;-34.520;150.798;2022-09-13T05:03:59;3.65;;;1.20;;
63394;SDS011;49531;-34.520;150.798;2022-09-13T05:06:27;6.55;;;1.35;;
63394;SDS011;49531;-34.520;150.798;2022-09-13T05:08:55;4.88;;;1.20;;
63394;SDS011;49531;-34.520;150.798;2022-09-13T05:11:25;3.10;;;1.23;;
63394;SDS011;49531;-34.520;150.798;2022-09-13T05:13:55;5.05;;;1.45;;
63394;SDS011;49531;-34.520;150.798;2022-09-13T05:16:24;3.80;;;1.00;;
63394;SDS011;49531;-34.520;150.798;2022-09-13T05:18:53;5.32;;;1.40;;
63394;SDS011;49531;-34.520;150.798;2022-09-13T05:21:21;4.55;;;1.13;;
63394;SDS011;49531;-34.520;150.798;2022-09-13T05:23:50;4.80;;;1.30;;
63394;SDS011;49531;-34.520;150.798;2022-09-13T05:26:18;6.20;;;1.30;;
63394;SDS011;49531;-34.520;150.798;2022-09-13T05:28:46;2.42;;;1.02;;
63394;SDS011;49531;-34.520;150.798;2022-09-13T05:31:15;2.95;;;1.23;;
63394;SDS011;49531;-34.520;150.798;2022-09-13T05:33:44;4.80;;;1.20;;
63394;SDS011;49531;-34.520;150.798;2022-09-13T05:36:13;3.28;;;1.20;;
63394;SDS011;49531;-34.520;150.798;2022-09-13T05:38:40;3.47;;;1.08;;
63394;SDS011;49531;-34.520;150.798;2022-09-13T05:41:07;11.10;;;1.35;;
63394;SDS011;49531;-34.520;150.798;2022-09-13T05:43:35;4.47;;;1.20;;
63394;SDS011;49531;-34.520;150.798;2022-09-13T05:46:03;7.63;;;1.00;;
63394;SDS011;49531;-34.520;150.798;2022-09-13T05:48:34;7.32;;;1.05;;
63394;SDS011;49531;-34.520;150.798;2022-09-13T05:51:07;6.05;;;1.23;;
63394;SDS011;49531;-34.520;150.798;2022-09-13T05:53:37;5.40;;;1.17;;
63394;SDS011;49531;-34.520;150.798;2022-09-13T05:56:06;9.18;;;1.02;;
63394;SDS011;49531;-34.520;150.798;2022-09-13T05:58:37;5.65;;;1.27;;
63394;SDS011;49531;-34.520;150.798;2022-09-13T06:01:06;9.77;;;1.50;;
63394;SDS011;49531;-34.520;150.798;2022-09-13T06:03:34;11.60;;;1.48;;
63394;SDS011;49531;-34.520;150.798;2022-09-13T06:06:02;6.05;;;1.20;;
63394;SDS011;49531;-34.520;150.798;2022-09-13T06:08:30;7.95;;;1.10;;
63394;SDS011;49531;-34.520;150.798;2022-09-13T06:10:59;5.55;;;1.30;;
63394;SDS011;49531;-34.520;150.798;2022-09-13T06:13:29;2.53;;;0.85;;
63394;SDS011;49531;-34.520;150.798;2022-09-13T06:15:57;7.32;;;1.20;;
63394;SDS011;49531;-34.520;150.798;2022-09-13T06:18:25;4.20;;;1.15;;
63394;SDS011;49531;-34.520;150.798;2022-09-13T06:20:57;5.70;;;1.10;;
63394;SDS011;49531;-34.520;150.798;2022-09-13T06:23:26;10.63;;;1.30;;
63394;SDS011;49531;-34.520;150.798;2022-09-13T06:26:01;12.45;;;1.10;;
63394;SDS011;49531;-34.520;150.798;2022-09-13T06:28:30;4.78;;;1.00;;
63394;SDS011;49531;-34.520;150.798;2022-09-13T06:30:59;8.48;;;1.13;;
63394;SDS011;49531;-34.520;150.798;2022-09-13T06:33:27;5.60;;;1.10;;
63394;SDS011;49531;-34.520;150.798;2022-09-13T06:35:58;3.28;;;1.05;;
63394;SDS011;49531;-34.520;150.798;2022-09-13T06:38:27;4.57;;;1.08;;
63394;SDS011;49531;-34.520;150.798;2022-09-13T06:40:58;6.60;;;1.10;;
63394;SDS011;49531;-34.520;150.798;2022-09-13T06:43:31;2.60;;;0.90;;
63394;SDS011;49531;-34.520;150.798;2022-09-13T06:46:00;2.60;;;0.85;;
63394;SDS011;49531;-34.520;150.798;2022-09-13T06:48:31;4.28;;;1.00;;
63394;SDS011;49531;-34.520;150.798;2022-09-13T06:51:00;5.20;;;1.20;;
63394;SDS011;49531;-34.520;150.798;2022-09-13T06:53:29;5.32;;;1.35;;
63394;SDS011;49531;-34.520;150.798;2022-09-13T06:56:00;2.42;;;0.85;;
63394;SDS011;49531;-34.520;150.798;2022-09-13T06:58:29;4.67;;;1.33;;
63394;SDS011;49531;-34.520;150.798;2022-09-13T07:03:44;4.63;;;0.93;;
63394;SDS011;49531;-34.520;150.798;2022-09-13T07:06:14;4.28;;;1.02;;
63394;SDS011;49531;-34.520;150.798;2022-09-13T07:08:43;9.73;;;1.30;;
63394;SDS011;49531;-34.520;150.798;2022-09-13T07:11:12;9.13;;;1.17;;
63394;SDS011;49531;-34.520;150.798;2022-09-13T07:13:47;9.10;;;1.05;;
63394;SDS011;49531;-34.520;150.798;2022-09-13T07:16:15;7.10;;;0.98;;
63394;SDS011;49531;-34.520;150.798;2022-09-13T07:18:44;6.53;;;1.00;;
63394;SDS011;49531;-34.520;150.798;2022-09-13T07:21:15;5.10;;;1.10;;
63394;SDS011;49531;-34.520;150.798;2022-09-13T07:23:42;5.50;;;1.08;;
63394;SDS011;49531;-34.520;150.798;2022-09-13T07:26:09;8.00;;;1.40;;
63394;SDS011;49531;-34.520;150.798;2022-09-13T07:28:38;6.65;;;1.10;;
63394;SDS011;49531;-34.520;150.798;2022-09-13T07:31:08;10.20;;;1.80;;
63394;SDS011;49531;-34.520;150.798;2022-09-13T07:33:38;7.28;;;1.90;;
63394;SDS011;49531;-34.520;150.798;2022-09-13T07:36:06;5.18;;;2.80;;
63394;SDS011;49531;-34.520;150.798;2022-09-13T07:38:34;6.22;;;3.00;;
63394;SDS011;49531;-34.520;150.798;2022-09-13T07:41:02;4.63;;;1.88;;
63394;SDS011;49531;-34.520;150.798;2022-09-13T07:43:31;8.93;;;1.38;;
63394;SDS011;49531;-34.520;150.798;2022-09-13T07:46:04;3.75;;;1.08;;
63394;SDS011;49531;-34.520;150.798;2022-09-13T07:48:33;4.60;;;1.10;;
63394;SDS011;49531;-34.520;150.798;2022-09-13T07:51:04;5.28;;;1.23;;
63394;SDS011;49531;-34.520;150.798;2022-09-13T07:53:34;6.68;;;1.20;;
63394;SDS011;49531;-34.520;150.798;2022-09-13T07:56:03;4.97;;;1.00;;
63394;SDS011;49531;-34.520;150.798;2022-09-13T07:58:32;2.10;;;0.80;;
63394;SDS011;49531;-34.520;150.798;2022-09-13T08:01:15;4.43;;;1.25;;
63394;SDS011;49531;-34.520;150.798;2022-09-13T08:03:49;1.88;;;0.85;;
63394;SDS011;49531;-34.520;150.798;2022-09-13T08:06:19;3.65;;;1.10;;
63394;SDS011;49531;-34.520;150.798;2022-09-13T08:08:46;3.95;;;1.13;;
63394;SDS011;49531;-34.520;150.798;2022-09-13T08:11:16;3.33;;;1.02;;
63394;SDS011;49531;-34.520;150.798;2022-09-13T08:13:45;2.80;;;0.95;;
63394;SDS011;49531;-34.520;150.798;2022-09-13T08:16:15;2.85;;;1.02;;
63394;SDS011;49531;-34.520;150.798;2022-09-13T08:18:43;2.35;;;0.90;;
63394;SDS011;49531;-34.520;150.798;2022-09-13T08:21:12;3.75;;;0.90;;
63394;SDS011;49531;-34.520;150.798;2022-09-13T08:23:39;3.13;;;0.95;;
63394;SDS011;49531;-34.520;150.798;2022-09-13T08:26:07;2.88;;;1.00;;
63394;SDS011;49531;-34.520;150.798;2022-09-13T08:28:35;5.05;;;1.10;;
63394;SDS011;49531;-34.520;150.798;2022-09-13T08:31:07;3.03;;;1.05;;
63394;SDS011;49531;-34.520;150.798;2022-09-13T08:33:36;3.13;;;0.93;;
63394;SDS011;49531;-34.520;150.798;2022-09-13T08:36:04;3.47;;;1.20;;
63394;SDS011;49531;-34.520;150.798;2022-09-13T08:38:31;2.80;;;1.00;;
63394;SDS011;49531;-34.520;150.798;2022-09-13T08:41:00;1.67;;;0.85;;
63394;SDS011;49531;-34.520;150.798;2022-09-13T08:43:41;3.92;;;1.13;;
63394;SDS011;49531;-34.520;150.798;2022-09-13T08:46:22;2.03;;;0.77;;
63394;SDS011;49531;-34.520;150.798;2022-09-13T08:48:54;2.17;;;0.90;;
63394;SDS011;49531;-34.520;150.798;2022-09-13T08:51:29;3.22;;;0.98;;
63394;SDS011;49531;-34.520;150.798;2022-09-13T08:54:00;3.15;;;1.10;;
63394;SDS011;49531;-34.520;150.798;2022-09-13T08:56:31;2.97;;;1.00;;
63394;SDS011;49531;-34.520;150.798;2022-09-13T08:59:25;2.40;;;1.00;;
63394;SDS011;49531;-34.520;150.798;2022-09-13T09:02:05;2.38;;;1.17;;
63394;SDS011;49531;-34.520;150.798;2022-09-13T09:04:44;3.20;;;1.00;;
63394;SDS011;49531;-34.520;150.798;2022-09-13T09:07:33;2.92;;;1.10;;
63394;SDS011;49531;-34.520;150.798;2022-09-13T09:10:10;3.30;;;1.10;;
63394;SDS011;49531;-34.520;150.798;2022-09-13T09:12:49;3.03;;;1.15;;
63394;SDS011;49531;-34.520;150.798;2022-09-13T09:15:28;3.25;;;1.00;;
63394;SDS011;49531;-34.520;150.798;2022-09-13T09:18:03;3.83;;;1.25;;
63394;SDS011;49531;-34.520;150.798;2022-09-13T09:20:42;3.42;;;1.30;;
63394;SDS011;49531;-34.520;150.798;2022-09-13T09:23:13;2.05;;;1.10;;
63394;SDS011;49531;-34.520;150.798;2022-09-13T09:25:46;1.90;;;1.15;;
63394;SDS011;49531;-34.520;150.798;2022-09-13T09:28:17;4.50;;;1.55;;
63394;SDS011;49531;-34.520;150.798;2022-09-13T09:30:48;3.05;;;1.30;;
63394;SDS011;49531;-34.520;150.798;2022-09-13T09:33:31;4.20;;;1.40;;
63394;SDS011;49531;-34.520;150.798;2022-09-13T09:36:22;4.90;;;1.65;;
63394;SDS011;49531;-34.520;150.798;2022-09-13T09:39:03;3.45;;;1.60;;
63394;SDS011;49531;-34.520;150.798;2022-09-13T09:41:31;3.38;;;1.50;;
63394;SDS011;49531;-34.520;150.798;2022-09-13T09:46:54;4.70;;;1.40;;
63394;SDS011;49531;-34.520;150.798;2022-09-13T09:49:30;3.83;;;1.42;;
63394;SDS011;49531;-34.520;150.798;2022-09-13T09:52:22;5.85;;;1.42;;
63394;SDS011;49531;-34.520;150.798;2022-09-13T09:54:55;3.28;;;1.42;;
63394;SDS011;49531;-34.520;150.798;2022-09-13T10:00:15;3.75;;;1.50;;
63394;SDS011;49531;-34.520;150.798;2022-09-13T10:02:43;4.65;;;1.80;;
63394;SDS011;49531;-34.520;150.798;2022-09-13T10:05:12;3.22;;;1.58;;
63394;SDS011;49531;-34.520;150.798;2022-09-13T10:07:48;3.47;;;1.27;;
63394;SDS011;49531;-34.520;150.798;2022-09-13T10:10:22;4.28;;;1.50;;
63394;SDS011;49531;-34.520;150.798;2022-09-13T10:12:56;4.65;;;1.45;;
63394;SDS011;49531;-34.520;150.798;2022-09-13T10:15:25;3.85;;;1.63;;
63394;SDS011;49531;-34.520;150.798;2022-09-13T10:18:02;3.22;;;1.50;;
63394;SDS011;49531;-34.520;150.798;2022-09-13T10:20:31;3.23;;;1.50;;
63394;SDS011;49531;-34.520;150.798;2022-09-13T10:23:09;3.45;;;1.42;;
63394;SDS011;49531;-34.520;150.798;2022-09-13T10:25:53;2.63;;;1.27;;
63394;SDS011;49531;-34.520;150.798;2022-09-13T10:28:23;2.65;;;1.30;;
63394;SDS011;49531;-34.520;150.798;2022-09-13T10:30:56;3.83;;;1.50;;
63394;SDS011;49531;-34.520;150.798;2022-09-13T10:33:29;3.47;;;1.30;;
63394;SDS011;49531;-34.520;150.798;2022-09-13T10:36:00;5.78;;;1.45;;
63394;SDS011;49531;-34.520;150.798;2022-09-13T10:38:32;3.15;;;1.42;;
63394;SDS011;49531;-34.520;150.798;2022-09-13T10:41:05;3.22;;;1.20;;
63394;SDS011;49531;-34.520;150.798;2022-09-13T10:43:36;3.22;;;1.30;;
63394;SDS011;49531;-34.520;150.798;2022-09-13T10:46:04;3.80;;;1.25;;
63394;SDS011;49531;-34.520;150.798;2022-09-13T10:48:43;2.75;;;1.20;;
63394;SDS011;49531;-34.520;150.798;2022-09-13T10:51:20;4.15;;;1.45;;
63394;SDS011;49531;-34.520;150.798;2022-09-13T10:56:45;3.35;;;1.10;;
63394;SDS011;49531;-34.520;150.798;2022-09-13T10:59:16;3.60;;;1.20;;
63394;SDS011;49531;-34.520;150.798;2022-09-13T11:01:54;2.42;;;1.10;;
63394;SDS011;49531;-34.520;150.798;2022-09-13T11:04:47;4.15;;;1.20;;
63394;SDS011;49531;-34.520;150.798;2022-09-13T11:07:38;2.70;;;1.15;;
63394;SDS011;49531;-34.520;150.798;2022-09-13T11:10:19;2.35;;;1.10;;
63394;SDS011;49531;-34.520;150.798;2022-09-13T11:12:58;2.25;;;1.10;;
63394;SDS011;49531;-34.520;150.798;2022-09-13T11:15:44;4.03;;;1.05;;
63394;SDS011;49531;-34.520;150.798;2022-09-13T11:18:31;2.50;;;1.00;;
63394;SDS011;49531;-34.520;150.798;2022-09-13T11:21:14;3.58;;;1.20;;
63394;SDS011;49531;-34.520;150.798;2022-09-13T11:24:04;2.38;;;1.00;;
63394;SDS011;49531;-34.520;150.798;2022-09-13T11:26:47;2.17;;;1.00;;
63394;SDS011;49531;-34.520;150.798;2022-09-13T11:29:28;1.88;;;1.00;;
63394;SDS011;49531;-34.520;150.798;2022-09-13T11:32:16;4.95;;;1.17;;
63394;SDS011;49531;-34.520;150.798;2022-09-13T11:35:03;3.92;;;1.00;;
63394;SDS011;49531;-34.520;150.798;2022-09-13T11:37:53;2.13;;;0.93;;
63394;SDS011;49531;-34.520;150.798;2022-09-13T11:40:43;2.33;;;1.08;;
63394;SDS011;49531;-34.520;150.798;2022-09-13T11:43:32;1.52;;;0.85;;
63394;SDS011;49531;-34.520;150.798;2022-09-13T11:46:18;3.30;;;1.15;;
63394;SDS011;49531;-34.520;150.798;2022-09-13T11:49:04;1.95;;;1.00;;
63394;SDS011;49531;-34.520;150.798;2022-09-13T11:52:02;2.65;;;1.00;;
63394;SDS011;49531;-34.520;150.798;2022-09-13T11:54:44;2.95;;;1.00;;
63394;SDS011;49531;-34.520;150.798;2022-09-13T11:57:28;1.95;;;0.90;;
63394;SDS011;49531;-34.520;150.798;2022-09-13T12:00:03;1.67;;;0.77;;
63394;SDS011;49531;-34.520;150.798;2022-09-13T12:02:39;1.33;;;0.80;;
63394;SDS011;49531;-34.520;150.798;2022-09-13T12:05:27;2.40;;;1.00;;
63394;SDS011;49531;-34.520;150.798;2022-09-13T12:08:00;2.13;;;0.90;;
63394;SDS011;49531;-34.520;150.798;2022-09-13T12:10:38;1.73;;;0.90;;
63394;SDS011;49531;-34.520;150.798;2022-09-13T12:13:16;2.03;;;1.00;;
63394;SDS011;49531;-34.520;150.798;2022-09-13T12:15:50;2.45;;;0.85;;
63394;SDS011;49531;-34.520;150.798;2022-09-13T12:18:23;2.22;;;0.90;;
63394;SDS011;49531;-34.520;150.798;2022-09-13T12:20:57;2.08;;;0.90;;
63394;SDS011;49531;-34.520;150.798;2022-09-13T12:23:38;2.50;;;1.00;;
63394;SDS011;49531;-34.520;150.798;2022-09-13T12:26:21;1.55;;;0.98;;
63394;SDS011;49531;-34.520;150.798;2022-09-13T12:29:04;1.13;;;0.82;;
63394;SDS011;49531;-34.520;150.798;2022-09-13T12:31:45;4.28;;;1.25;;
63394;SDS011;49531;-34.520;150.798;2022-09-13T12:34:16;2.97;;;1.15;;
63394;SDS011;49531;-34.520;150.798;2022-09-13T12:39:50;2.22;;;1.00;;
63394;SDS011;49531;-34.520;150.798;2022-09-13T12:42:45;1.77;;;1.02;;
63394;SDS011;49531;-34.520;150.798;2022-09-13T12:45:46;2.03;;;0.93;;
63394;SDS011;49531;-34.520;150.798;2022-09-13T12:48:33;4.07;;;1.00;;
63394;SDS011;49531;-34.520;150.798;2022-09-13T12:51:36;1.77;;;0.90;;
63394;SDS011;49531;-34.520;150.798;2022-09-13T12:54:24;3.03;;;1.00;;
63394;SDS011;49531;-34.520;150.798;2022-09-13T12:57:17;3.30;;;1.20;;
63394;SDS011;49531;-34.520;150.798;2022-09-13T13:02:50;2.65;;;1.20;;
63394;SDS011;49531;-34.520;150.798;2022-09-13T13:05:27;2.40;;;1.13;;
63394;SDS011;49531;-34.520;150.798;2022-09-13T13:07:59;3.78;;;1.13;;
63394;SDS011;49531;-34.520;150.798;2022-09-13T13:10:30;2.55;;;0.90;;
63394;SDS011;49531;-34.520;150.798;2022-09-13T13:18:26;2.75;;;1.20;;
63394;SDS011;49531;-34.520;150.798;2022-09-13T13:21:03;2.45;;;1.23;;
63394;SDS011;49531;-34.520;150.798;2022-09-13T13:23:47;4.97;;;1.30;;
63394;SDS011;49531;-34.520;150.798;2022-09-13T13:26:51;2.47;;;1.10;;
63394;SDS011;49531;-34.520;150.798;2022-09-13T13:29:24;3.08;;;1.20;;
63394;SDS011;49531;-34.520;150.798;2022-09-13T13:34:38;2.47;;;1.20;;
63394;SDS011;49531;-34.520;150.798;2022-09-13T13:42:37;3.17;;;1.10;;
63394;SDS011;49531;-34.520;150.798;2022-09-13T13:47:52;2.25;;;1.20;;
63394;SDS011;49531;-34.520;150.798;2022-09-13T13:50:31;1.60;;;0.90;;
63394;SDS011;49531;-34.520;150.798;2022-09-13T13:53:00;2.28;;;1.00;;
63394;SDS011;49531;-34.520;150.798;2022-09-13T13:55:47;1.98;;;0.90;;
63394;SDS011;49531;-34.520;150.798;2022-09-13T13:58:36;1.52;;;0.80;;
63394;SDS011;49531;-34.520;150.798;2022-09-13T14:01:22;1.50;;;0.80;;
63394;SDS011;49531;-34.520;150.798;2022-09-13T14:04:05;3.40;;;1.08;;
63394;SDS011;49531;-34.520;150.798;2022-09-13T14:09:51;1.88;;;0.82;;
63394;SDS011;49531;-34.520;150.798;2022-09-13T14:12:31;1.80;;;0.82;;
63394;SDS011;49531;-34.520;150.798;2022-09-13T14:15:18;3.70;;;1.00;;
63394;SDS011;49531;-34.520;150.798;2022-09-13T14:21:00;2.33;;;0.90;;
63394;SDS011;49531;-34.520;150.798;2022-09-13T14:23:29;2.03;;;0.65;;
63394;SDS011;49531;-34.520;150.798;2022-09-13T14:25:57;2.00;;;0.82;;
63394;SDS011;49531;-34.520;150.798;2022-09-13T14:28:27;1.77;;;0.80;;
63394;SDS011;49531;-34.520;150.798;2022-09-13T14:30:57;2.67;;;0.90;;
63394;SDS011;49531;-34.520;150.798;2022-09-13T14:33:27;3.03;;;0.77;;
63394;SDS011;49531;-34.520;150.798;2022-09-13T14:36:00;2.00;;;0.80;;
63394;SDS011;49531;-34.520;150.798;2022-09-13T14:38:32;2.47;;;0.75;;
63394;SDS011;49531;-34.520;150.798;2022-09-13T14:41:08;1.75;;;0.73;;
63394;SDS011;49531;-34.520;150.798;2022-09-13T14:43:40;2.35;;;0.90;;
63394;SDS011;49531;-34.520;150.798;2022-09-13T14:46:12;2.80;;;0.90;;
63394;SDS011;49531;-34.520;150.798;2022-09-13T14:48:50;1.42;;;0.70;;
63394;SDS011;49531;-34.520;150.798;2022-09-13T14:51:23;3.22;;;0.85;;
63394;SDS011;49531;-34.520;150.798;2022-09-13T14:53:58;0.82;;;0.40;;
63394;SDS011;49531;-34.520;150.798;2022-09-13T14:56:40;2.25;;;0.60;;
63394;SDS011;49531;-34.520;150.798;2022-09-13T14:59:13;2.00;;;0.70;;
63394;SDS011;49531;-34.520;150.798;2022-09-13T15:01:49;1.13;;;0.60;;
63394;SDS011;49531;-34.520;150.798;2022-09-13T15:04:16;3.75;;;0.75;;
63394;SDS011;49531;-34.520;150.798;2022-09-13T15:06:44;1.80;;;0.68;;
63394;SDS011;49531;-34.520;150.798;2022-09-13T15:09:13;2.35;;;0.80;;
63394;SDS011;49531;-34.520;150.798;2022-09-13T15:11:55;2.75;;;0.70;;
63394;SDS011;49531;-34.520;150.798;2022-09-13T15:14:28;3.33;;;0.90;;
63394;SDS011;49531;-34.520;150.798;2022-09-13T15:16:57;1.48;;;0.55;;
63394;SDS011;49531;-34.520;150.798;2022-09-13T15:19:38;2.20;;;0.65;;
63394;SDS011;49531;-34.520;150.798;2022-09-13T15:22:14;2.13;;;0.70;;
63394;SDS011;49531;-34.520;150.798;2022-09-13T15:24:49;2.25;;;0.70;;
63394;SDS011;49531;-34.520;150.798;2022-09-13T15:27:20;1.85;;;0.60;;
63394;SDS011;49531;-34.520;150.798;2022-09-13T15:29:51;1.55;;;0.60;;
63394;SDS011;49531;-34.520;150.798;2022-09-13T15:32:21;2.60;;;0.80;;
63394;SDS011;49531;-34.520;150.798;2022-09-13T15:34:58;1.35;;;0.57;;
63394;SDS011;49531;-34.520;150.798;2022-09-13T15:37:28;1.73;;;0.60;;
63394;SDS011;49531;-34.520;150.798;2022-09-13T15:40:19;2.40;;;0.70;;
63394;SDS011;49531;-34.520;150.798;2022-09-13T15:42:47;3.70;;;0.82;;
63394;SDS011;49531;-34.520;150.798;2022-09-13T15:45:16;2.55;;;0.60;;
63394;SDS011;49531;-34.520;150.798;2022-09-13T15:47:45;1.80;;;0.60;;